Eckert, CO (81418)

2:32 AM MDT on August 22, 2014 (GMT -0600)
KCOAUSTI3 | Change Station
CLOSE
Current Station
Personal Weather Station
Location: Austin, CO
Elevation: 5837 ft
Nearby Weather Stations

Elev 5837 ft 38.82 °N, 107.95 °W | Updated 6 minutes ago

Overcast
Overcast
64.2 °F
Feels Like 64.2 °F
N
0.0
Wind Variable Wind from SSW

Today
High -- | Low -- °F
--% Chance of Precip.
Yesterday
High -- | Low -- °F
Precip. -- in
6:31 AM 7:56 PM
Waning Crescent, 9% visible
Pressure 30.13 in
Visibility 10.0 miles
Clouds Overcast 10000 ft
Dew Point 47 °F
Humidity 54%
Rainfall 0.00 in
Snow Depth Not available.
UV 0 out of 12
Pollen 8.90 out of 12
Air Quality Not available.
Flu Activity Not available.
METAR KAJZ 220815Z AUTO 06005KT 10SM OVC100 21/08 A3013 RMK AO2 T02130080

More Conditions Fewer Conditions

Pressure 30.13 in
Visibility 10.0 miles
Clouds Overcast 10000 ft
Dew Point 47 °F
Humidity 54%
Rainfall 0.00 in
Snow Depth Not available.
UV 0 out of 12
Pollen 8.90 out of 12
Air Quality Not available.
Flu Activity Not available.
METAR KAJZ 220815Z AUTO 06005KT 10SM OVC100 21/08 A3013 RMK AO2 T02130080

More Conditions Fewer Conditions

10-Day Weather Forecast

Almanac

Astronomy

Aug. 22, 2014 Rise Set
Actual Time 6:31 AM MDT 7:56 PM MDT
Civil Twilight 6:03 AM MDT 8:24 PM MDT
Nautical Twilight 5:30 AM MDT 8:58 PM MDT
Astronomical Twilight 4:55 AM MDT 9:33 PM MDT
Moon 3:57 AM MDT 6:06 PM MDT
Length of Visible Light 14h 20m
Length of Day
13h 24m
Tomorrow will be 2m 19s shorter.
Waning Crescent, 9% of the Moon is Illuminated
Today
Waning Crescent
Aug 25
New
Sep 2
First Quarter
Sep 8
Full
Sep 15
Last Quarter

Today's Extremes

State Highs State Lows

Community

WunderPhotos

Upload Photos

1,746,144 photos uploaded!

Nearby

Snow Depth

Station Depth Elevation
Park Reservoir 0 in 9960 ft
Mesa Lakes 0 in 10000 ft
Overland Reservoir 0 in 9880 ft
Columbine Pass 0 in 9400 ft
McClure Pass 4 in 9500 ft

Earthquake Activity

City Distance Mag. Time & Date
No recent earthquake activity has been reported nearby.
Minimum magnitude displayed is 2.5.

Coastal Water Temperatures

Place Temperature
No Stations Reporting

Nearby Weather Stations